Time;durP1;ratioP1;P1;durP2;ratioP2;P2;SDS_P1;SDS_P2;PMS_P1;PMS_P2;Temp;Humidity;BMP_temperature;BMP_pressure;BME280_temperature;BME280_humidity;BME280_pressure;Samples;Min_cycle;Max_cycle;Signal;HPM_P1;HPM_P2
2020/12/10 00:01:12;;;;;;;48.78;12.73;;;;;;;-144.15;0.00;65763.66;10358301;28;20052;-68
2020/12/10 00:06:10;;;;;;;29.35;9.13;;;;;;;-144.15;0.00;65763.66;10358975;28;20082;-67
2020/12/10 00:11:09;;;;;;;50.05;9.73;;;;;;;-144.15;0.00;65763.66;10358613;28;20072;-67
2020/12/10 00:16:10;;;;;;;26.88;9.90;;;;;;;-144.15;0.00;65763.66;10358076;28;20080;-67
2020/12/10 00:21:08;;;;;;;62.97;11.15;;;;;;;-144.15;0.00;65763.66;10358261;28;20051;-67
2020/12/10 00:26:06;;;;;;;23.92;8.73;;;;;;;-144.15;0.00;65763.66;10358456;28;20048;-67
2020/12/10 00:31:05;;;;;;;31.33;8.57;;;;;;;-144.15;0.00;65763.66;10357460;28;20032;-67
2020/12/10 00:36:03;;;;;;;39.40;9.38;;;;;;;-144.15;0.00;65763.66;10357804;28;20087;-67
2020/12/10 00:41:01;;;;;;;48.97;8.38;;;;;;;-144.15;0.00;65763.66;10357698;28;20048;-68
2020/12/10 00:46:02;;;;;;;37.63;8.07;;;;;;;-144.15;0.00;65763.66;10357287;28;20529;-68
2020/12/10 00:51:02;;;;;;;86.32;12.48;;;;;;;-144.15;0.00;65763.66;10357529;28;20055;-67
2020/12/10 00:56:01;;;;;;;51.58;8.70;;;;;;;-144.15;0.00;65763.66;10355778;28;20445;-68
2020/12/10 01:00:59;;;;;;;62.70;9.93;;;;;;;-144.15;0.00;65763.66;10357474;28;20091;-68
2020/12/10 01:05:57;;;;;;;27.48;8.48;;;;;;;-144.15;0.00;65763.66;10357237;28;20493;-68
2020/12/10 01:10:55;;;;;;;45.97;8.63;;;;;;;-144.15;0.00;65763.66;10360108;28;20079;-68
2020/12/10 01:15:54;;;;;;;49.80;9.82;;;;;;;55.18;0.00;65763.66;10365169;28;20471;-68
2020/12/10 01:20:52;;;;;;;51.97;9.30;;;;;;;-144.15;0.00;65763.66;10364793;28;20084;-68
2020/12/10 01:25:50;;;;;;;74.25;8.82;;;;;;;-144.15;0.00;65763.66;10364536;28;20492;-68
2020/12/10 01:30:48;;;;;;;73.63;9.27;;;;;;;-144.15;0.00;65763.66;10365105;28;20047;-67
2020/12/10 01:35:47;;;;;;;63.60;9.38;;;;;;;-144.15;0.00;65763.66;10363916;28;20088;-67
2020/12/10 01:40:49;;;;;;;107.28;10.57;;;;;;;-144.15;0.00;65763.66;10364095;28;20052;-68
2020/12/10 01:45:48;;;;;;;86.78;10.10;;;;;;;-144.15;0.00;65763.66;10364018;28;20040;-68
2020/12/10 01:50:46;;;;;;;91.43;9.00;;;;;;;-144.15;0.00;65763.66;10363266;28;20047;-68
2020/12/10 01:55:45;;;;;;;61.42;10.00;;;;;;;-144.15;0.00;65763.66;10360978;28;20278;-68
2020/12/10 02:00:43;;;;;;;112.43;11.10;;;;;;;-144.15;0.00;65763.66;10361853;28;20086;-68
2020/12/10 02:05:43;;;;;;;88.15;10.55;;;;;;;-144.15;0.00;65763.66;10363159;28;20055;-68
2020/12/10 02:10:41;;;;;;;61.22;13.75;;;;;;;-144.15;0.00;65763.66;10363063;28;20401;-67
2020/12/10 02:15:39;;;;;;;49.17;13.52;;;;;;;-144.15;0.00;65763.66;10362856;28;20082;-69
2020/12/10 02:20:36;;;;;;;46.00;8.63;;;;;;;-144.15;0.00;65763.66;10362181;28;20405;-68
2020/12/10 02:25:35;;;;;;;51.85;10.90;;;;;;;-144.15;0.00;65763.66;10362025;28;20071;-68
2020/12/10 02:30:33;;;;;;;37.33;11.52;;;;;;;-144.15;0.00;65763.66;10362438;28;20036;-67
2020/12/10 02:35:32;;;;;;;19.45;8.82;;;;;;;-144.15;0.00;65763.66;10362113;28;20079;-67
2020/12/10 02:40:34;;;;;;;24.38;7.80;;;;;;;-144.15;0.00;65763.66;10361765;28;20051;-66
2020/12/10 02:45:33;;;;;;;53.25;8.85;;;;;;;-144.15;0.00;65763.66;10361638;28;20082;-66
2020/12/10 02:50:31;;;;;;;24.27;9.30;;;;;;;-144.15;0.00;65763.66;10361451;28;20036;-67
2020/12/10 02:55:29;;;;;;;18.15;8.93;;;;;;;-144.15;0.00;65763.66;10361324;28;20071;-68
2020/12/10 03:00:27;;;;;;;34.67;17.00;;;;;;;-144.15;0.00;65763.66;10361307;28;20048;-68
2020/12/10 03:05:25;;;;;;;41.28;16.73;;;;;;;-144.15;0.00;65763.66;10361597;28;20040;-68
2020/12/10 03:10:23;;;;;;;21.48;16.95;;;;;;;-144.15;0.00;65763.66;10361143;28;20040;-67
2020/12/10 03:15:21;;;;;;;19.67;16.08;;;;;;;-144.15;0.00;65763.66;10360535;28;20090;-67
2020/12/10 03:20:19;;;;;;;29.33;17.92;;;;;;;-144.15;0.00;65763.66;10360365;28;20072;-67
2020/12/10 03:25:18;;;;;;;47.25;19.85;;;;;;;-144.15;0.00;65763.66;10360621;28;20048;-67
2020/12/10 03:30:15;;;;;;;150.55;29.15;;;;;;;-144.15;0.00;65763.66;10359656;28;20048;-68
2020/12/10 03:35:13;;;;;;;61.08;25.50;;;;;;;-144.15;0.00;65763.66;10358870;28;20086;-68
2020/12/10 03:40:11;;;;;;;190.60;34.13;;;;;;;-144.15;0.00;65763.66;10359420;28;20508;-68
2020/12/10 03:45:10;;;;;;;168.60;47.63;;;;;;;-144.15;0.00;65763.66;10359335;28;20075;-68
2020/12/10 03:50:08;;;;;;;117.55;27.80;;;;;;;-144.15;0.00;65763.66;10359709;28;20488;-68
2020/12/10 03:55:05;;;;;;;180.55;30.83;;;;;;;-144.15;0.00;65763.66;10358816;28;20075;-68
2020/12/10 04:00:04;;;;;;;233.45;26.67;;;;;;;-144.15;0.00;65763.66;10358827;28;20493;-68
2020/12/10 04:05:03;;;;;;;305.60;28.10;;;;;;;-144.15;0.00;65763.66;10359072;28;20436;-68
2020/12/10 04:10:01;;;;;;;223.68;21.77;;;;;;;-144.15;0.00;65763.66;10358245;28;20393;-68
2020/12/10 04:14:59;;;;;;;89.60;14.40;;;;;;;-144.15;0.00;65763.66;10358359;28;20071;-68
2020/12/10 04:19:56;;;;;;;158.88;21.88;;;;;;;-144.15;0.00;65763.66;10358168;28;20386;-68
2020/12/10 04:24:55;;;;;;;50.05;18.35;;;;;;;-144.15;0.00;65763.66;10357777;28;20387;-68
2020/12/10 04:29:53;;;;;;;50.40;13.77;;;;;;;-144.15;0.00;65763.66;10358125;28;20072;-65
2020/12/10 04:34:50;;;;;;;39.60;19.67;;;;;;;-144.15;0.00;65763.66;10357202;28;20087;-66
2020/12/10 04:39:48;;;;;;;28.08;20.38;;;;;;;-144.15;0.00;65763.66;10337646;28;20064;-67
2020/12/10 04:44:47;;;;;;;44.53;21.63;;;;;;;-144.15;0.00;65763.66;10346442;28;20052;-67
2020/12/10 04:49:45;;;;;;;26.85;17.65;;;;;;;-144.15;0.00;65763.66;10318183;28;20036;-67
2020/12/10 04:54:43;;;;;;;25.38;15.93;;;;;;;-144.15;0.00;65763.66;10325504;28;20095;-66
2020/12/10 04:59:41;;;;;;;40.10;13.05;;;;;;;-144.15;0.00;65763.66;10317931;28;20076;-67
2020/12/10 05:04:39;;;;;;;32.17;13.95;;;;;;;4.33;0.00;65763.66;10315693;28;20425;-67
2020/12/10 05:09:37;;;;;;;27.05;14.57;;;;;;;-144.15;0.00;65763.66;10315561;28;20056;-67
2020/12/10 05:14:45;;;;;;;25.42;13.98;;;;;;;-144.15;0.00;65763.66;10315252;28;20068;-67
2020/12/10 05:19:44;;;;;;;22.88;13.27;;;;;;;-144.15;0.00;65763.66;10314761;28;20037;-67
2020/12/10 05:24:42;;;;;;;22.83;13.45;;;;;;;-144.15;0.00;65763.66;10314447;28;20048;-67
2020/12/10 05:29:39;;;;;;;27.45;14.23;;;;;;;-144.15;0.00;65763.66;10314468;28;20182;-67
2020/12/10 05:34:37;;;;;;;50.28;17.45;;;;;;;-144.15;0.00;65763.66;10315649;28;20068;-67
2020/12/10 05:39:36;;;;;;;38.72;18.13;;;;;;;-144.15;0.00;65763.66;10314703;28;20044;-67
2020/12/10 05:44:34;;;;;;;69.65;13.65;;;;;;;-144.15;0.00;65763.66;10315350;28;20090;-67
2020/12/10 05:49:32;;;;;;;32.28;14.20;;;;;;;98.23;0.00;65763.66;10314142;28;20516;-67
2020/12/10 05:54:33;;;;;;;38.55;12.88;;;;;;;-144.15;0.00;65763.66;10314935;28;20044;-67
2020/12/10 05:59:33;;;;;;;36.72;12.90;;;;;;;-144.15;0.00;65763.66;10320667;28;20060;-67
2020/12/10 06:04:32;;;;;;;24.70;13.20;;;;;;;3.02;0.00;65763.66;10321884;28;20052;-67
2020/12/10 06:09:30;;;;;;;36.50;13.68;;;;;;;-144.15;0.00;65763.66;10320814;28;20044;-66
2020/12/10 06:14:28;;;;;;;42.38;14.57;;;;;;;3.02;0.00;65763.66;10320799;28;20079;-67
2020/12/10 06:19:32;;;;;;;96.80;16.17;;;;;;;113.88;0.00;65763.66;10320569;28;20090;-66
2020/12/10 06:24:33;;;;;;;95.03;29.83;;;;;;;-144.15;0.00;65763.66;10320577;28;20098;-67
2020/12/10 06:29:34;;;;;;;103.63;41.80;;;;;;;3.02;0.00;65763.66;10319974;28;20044;-67
2020/12/10 06:34:38;;;;;;;126.97;28.83;;;;;;;-144.15;0.00;65763.66;10321261;28;20052;-67
2020/12/10 06:39:37;;;;;;;84.38;22.90;;;;;;;-144.15;0.00;65763.66;10319776;28;20090;-67
2020/12/10 06:44:35;;;;;;;46.08;17.08;;;;;;;-144.15;0.00;65763.66;10320442;28;20045;-68
2020/12/10 06:49:37;;;;;;;72.57;20.20;;;;;;;3.02;0.00;65763.66;10319343;28;20077;-67
2020/12/10 06:54:34;;;;;;;62.55;20.92;;;;;;;-144.15;0.00;65763.66;10319950;28;20040;-68
2020/12/10 06:59:40;;;;;;;120.70;20.92;;;;;;;-144.15;0.00;65763.66;10318885;28;20099;-68
2020/12/10 07:04:47;;;;;;;200.27;27.02;;;;;;;-144.15;0.00;65763.66;10319893;28;20071;-67
2020/12/10 07:09:50;;;;;;;130.27;42.15;;;;;;;-144.15;0.00;65763.66;10317389;28;20048;-67
2020/12/10 07:14:50;;;;;;;84.70;38.30;;;;;;;-144.15;0.00;65763.66;10318442;28;20091;-68
2020/12/10 07:19:49;;;;;;;97.57;43.15;;;;;;;-144.15;0.00;65763.66;10318370;28;20048;-67
2020/12/10 07:24:46;;;;;;;79.50;26.95;;;;;;;-144.15;0.00;65763.66;10316849;28;20048;-66
2020/12/10 07:29:49;;;;;;;91.20;24.90;;;;;;;-144.15;0.00;65763.66;10318264;28;20044;-67
2020/12/10 07:34:47;;;;;;;75.60;28.73;;;;;;;163.49;0.00;65763.66;10318438;28;20055;-67
2020/12/10 07:39:46;;;;;;;34.20;19.50;;;;;;;-144.15;0.00;65763.66;10317803;28;20087;-67
2020/12/10 07:44:43;;;;;;;95.70;18.75;;;;;;;-144.15;0.00;65763.66;10317153;28;20079;-67
2020/12/10 07:49:41;;;;;;;57.90;18.48;;;;;;;-144.15;0.00;65763.66;10316658;28;20086;-66
2020/12/10 07:54:44;;;;;;;136.52;33.53;;;;;;;-144.15;0.00;65763.66;10317644;28;20521;-68
2020/12/10 07:59:47;;;;;;;215.77;63.08;;;;;;;-144.15;0.00;65763.66;10315486;28;20536;-68
2020/12/10 08:04:45;;;;;;;87.60;35.13;;;;;;;-144.15;0.00;65763.66;10317256;28;20045;-67
2020/12/10 08:09:45;;;;;;;75.05;26.33;;;;;;;-106.40;0.00;65763.66;10316285;28;20083;-67
2020/12/10 08:14:51;;;;;;;151.73;48.33;;;;;;;-144.15;0.00;65763.66;10354725;28;20079;-67
2020/12/10 08:19:55;;;;;;;198.50;43.33;;;;;;;-144.15;0.00;65763.66;10316315;28;20052;-66
2020/12/10 08:24:53;;;;;;;87.72;41.90;;;;;;;-144.15;0.00;65763.66;10316932;28;20091;-67
2020/12/10 08:30:04;;;;;;;186.57;66.45;;;;;;;-144.15;0.00;65763.66;10316525;28;20418;-68
2020/12/10 08:35:04;;;;;;;136.00;47.80;;;;;;;-144.15;0.00;65763.66;10357334;28;20048;-67
2020/12/10 08:40:01;;;;;;;153.20;41.13;;;;;;;-144.15;0.00;65763.66;10316005;28;20076;-67
2020/12/10 08:44:59;;;;;;;105.75;42.17;;;;;;;-144.15;0.00;65763.66;10355893;28;20044;-67
2020/12/10 08:55:21;;;;;;;45.05;30.02;;;;;;;-144.15;0.00;65763.66;10313122;28;20056;-67
2020/12/10 09:00:19;;;;;;;48.42;29.08;;;;;;;-144.15;0.00;65763.66;10315589;28;20052;-67
2020/12/10 09:05:18;;;;;;;36.58;25.25;;;;;;;-144.15;0.00;65763.66;10315887;28;20083;-67
2020/12/10 09:10:16;;;;;;;75.45;42.65;;;;;;;-66.03;0.00;65763.66;10315341;28;20063;-66
2020/12/10 09:15:13;;;;;;;98.07;53.05;;;;;;;-144.15;0.00;65763.66;10314943;28;20523;-66
2020/12/10 09:20:11;;;;;;;72.85;32.08;;;;;;;-144.15;0.00;65763.66;10315136;28;20081;-66
2020/12/10 09:25:10;;;;;;;38.78;23.88;;;;;;;-144.15;0.00;65763.66;10314669;28;20498;-66
2020/12/10 09:30:10;;;;;;;48.30;29.58;;;;;;;-144.15;0.00;65763.66;10316219;28;20075;-66
2020/12/10 09:35:10;;;;;;;183.32;100.70;;;;;;;4.33;0.00;65763.66;10322075;28;20037;-66
2020/12/10 09:40:09;;;;;;;59.97;35.65;;;;;;;-144.15;0.00;65763.66;10321993;28;20080;-65
2020/12/10 09:45:08;;;;;;;76.50;43.35;;;;;;;-144.15;0.00;65763.66;10321629;28;20479;-65
2020/12/10 09:50:07;;;;;;;63.58;27.48;;;;;;;-144.15;0.00;65763.66;10321710;28;20085;-67
2020/12/10 09:55:10;;;;;;;57.83;28.70;;;;;;;-144.15;0.00;65763.66;10322181;28;20052;-66
2020/12/10 10:00:09;;;;;;;43.03;29.33;;;;;;;-144.15;0.00;65763.66;10321526;28;20475;-66
2020/12/10 10:05:10;;;;;;;33.03;23.10;;;;;;;-144.15;0.00;65763.66;10319506;28;20053;-66
2020/12/10 10:10:07;;;;;;;80.47;47.90;;;;;;;-144.15;0.00;65763.66;10317533;28;20072;-65
2020/12/10 10:15:05;;;;;;;30.35;21.58;;;;;;;-144.15;0.00;65763.66;10268400;23;20489;-67
2020/12/10 10:20:04;;;;;;;36.40;25.42;;;;;;;-144.15;0.00;65763.66;10235876;28;20111;-66
2020/12/10 10:25:01;;;;;;;58.63;41.97;;;;;;;-144.15;0.00;65763.66;10236929;28;20076;-67
2020/12/10 10:29:59;;;;;;;87.60;46.75;;;;;;;-144.15;0.00;65763.66;10237927;28;20046;-67
2020/12/10 10:34:57;;;;;;;41.63;32.47;;;;;;;-144.15;0.00;65763.66;10237801;28;20041;-67
2020/12/10 10:39:56;;;;;;;32.10;25.13;;;;;;;-144.15;0.00;65763.66;10238060;28;20514;-68
2020/12/10 10:44:54;;;;;;;148.18;75.35;;;;;;;-144.15;0.00;65763.66;10237863;28;20049;-68
2020/12/10 10:49:52;;;;;;;86.88;53.08;;;;;;;-144.15;0.00;65763.66;10238349;28;20183;-67
2020/12/10 10:54:49;;;;;;;123.80;70.65;;;;;;;-144.15;0.00;65763.66;10237855;28;20065;-66
2020/12/10 10:59:48;;;;;;;68.20;43.55;;;;;;;-144.15;0.00;65763.66;10237345;28;20080;-65
2020/12/10 11:04:46;;;;;;;79.70;50.05;;;;;;;-144.15;0.00;65763.66;10237491;28;20069;-66
2020/12/10 11:09:44;;;;;;;49.70;30.63;;;;;;;-144.15;0.00;65763.66;10238628;28;20383;-67
2020/12/10 11:14:41;;;;;;;53.33;28.25;;;;;;;-144.15;0.00;65763.66;10237805;28;20541;-67
2020/12/10 11:19:40;;;;;;;77.93;49.38;;;;;;;-144.15;0.00;65763.66;10238003;28;20505;-67
2020/12/10 11:24:38;;;;;;;94.35;48.67;;;;;;;-144.15;0.00;65763.66;10237639;28;20068;-66
2020/12/10 11:29:36;;;;;;;49.33;33.85;;;;;;;-144.15;0.00;65763.66;10237994;28;20064;-67
2020/12/10 11:34:34;;;;;;;83.57;52.63;;;;;;;-144.15;0.00;65763.66;10237502;28;20530;-67
2020/12/10 11:39:32;;;;;;;126.18;75.55;;;;;;;-144.15;0.00;65763.66;10237179;28;20450;-66
2020/12/10 11:44:30;;;;;;;115.40;69.20;;;;;;;-144.15;0.00;65763.66;10237007;28;20045;-67
2020/12/10 11:49:28;;;;;;;98.22;63.85;;;;;;;-144.15;0.00;65763.66;10236264;28;20054;-66
2020/12/10 11:54:25;;;;;;;130.82;88.40;;;;;;;-144.15;0.00;65763.66;10235827;28;20041;-67
2020/12/10 11:59:24;;;;;;;79.75;58.30;;;;;;;-144.15;0.00;65763.66;10236026;28;20088;-66
2020/12/10 12:04:22;;;;;;;63.30;45.13;;;;;;;-144.15;0.00;65763.66;10235415;28;20049;-67
2020/12/10 12:09:20;;;;;;;66.15;45.10;;;;;;;-144.15;0.00;65763.66;10236600;28;20077;-67
2020/12/10 12:14:18;;;;;;;82.35;50.47;;;;;;;-144.15;0.00;65763.66;10233975;28;20085;-67
2020/12/10 12:19:17;;;;;;;139.57;98.05;;;;;;;-144.15;0.00;65763.66;10235977;28;20080;-67
2020/12/10 12:24:14;;;;;;;59.30;41.40;;;;;;;-144.15;0.00;65763.66;10235882;28;20099;-66
2020/12/10 12:29:14;;;;;;;45.47;32.15;;;;;;;-144.15;0.00;65763.66;10235790;28;20049;-66
2020/12/10 12:34:12;;;;;;;57.65;39.10;;;;;;;-144.15;0.00;65763.66;10236336;28;20068;-66
2020/12/10 12:39:13;;;;;;;51.05;35.03;;;;;;;-144.15;0.00;65763.66;10234426;28;20578;-67
2020/12/10 12:44:22;;;;;;;83.68;51.83;;;;;;;-144.15;0.00;65763.66;10235492;28;20518;-67
2020/12/10 12:49:20;;;;;;;84.47;52.72;;;;;;;-144.15;0.00;65763.66;10235221;28;20103;-65
2020/12/10 12:54:19;;;;;;;82.75;52.50;;;;;;;-144.15;0.00;65763.66;10235102;28;20044;-64
2020/12/10 12:59:18;;;;;;;95.20;58.50;;;;;;;-144.15;0.00;65763.66;10233575;28;20088;-66
2020/12/10 13:04:18;;;;;;;89.25;45.33;;;;;;;-144.15;0.00;65763.66;10235906;28;20053;-67
2020/12/10 13:09:17;;;;;;;298.83;140.30;;;;;;;-144.15;0.00;65763.66;10242852;28;20069;-67
2020/12/10 13:14:15;;;;;;;74.47;50.33;;;;;;;-144.15;0.00;65763.66;10240646;28;20054;-67
2020/12/10 13:19:13;;;;;;;254.43;121.55;;;;;;;-144.15;0.00;65763.66;10239718;28;20077;-68
2020/12/10 13:24:11;;;;;;;169.63;89.60;;;;;;;-144.15;0.00;65763.66;10239853;28;20072;-68
2020/12/10 13:29:10;;;;;;;488.52;219.85;;;;;;;-144.15;0.00;65763.66;10239604;28;20453;-67
2020/12/10 13:34:09;;;;;;;555.40;269.13;;;;;;;-144.15;0.00;65763.66;10240503;28;20110;-68
2020/12/10 13:39:06;;;;;;;573.95;305.67;;;;;;;-144.15;0.00;65763.66;10239242;28;20088;-68
2020/12/10 13:44:04;;;;;;;130.32;66.65;;;;;;;-144.15;0.00;65763.66;10239272;28;20076;-67
2020/12/10 13:49:02;;;;;;;579.03;267.42;;;;;;;-144.15;0.00;65763.66;10239118;28;20049;-67
2020/12/10 13:54:01;;;;;;;527.17;233.43;;;;;;;-144.15;0.00;65763.66;10239043;28;20077;-66
2020/12/10 13:58:58;;;;;;;1999.90;829.38;;;;;;;-144.15;0.00;65763.66;10238723;28;20073;-66
2020/12/10 14:03:56;;;;;;;1019.88;454.50;;;;;;;-144.15;0.00;65763.66;10238570;28;20065;-66
2020/12/10 14:08:54;;;;;;;612.65;293.67;;;;;;;-144.15;0.00;65763.66;10237959;28;20048;-67
2020/12/10 14:13:54;;;;;;;392.42;174.50;;;;;;;-144.15;0.00;65763.66;10217693;28;627325;-66
2020/12/10 14:18:52;;;;;;;534.55;247.02;;;;;;;-144.15;0.00;65763.66;10239817;28;20112;-66
2020/12/10 14:23:50;;;;;;;323.67;162.50;;;;;;;-144.15;0.00;65763.66;10238364;28;20648;-67
2020/12/10 14:28:48;;;;;;;96.85;57.13;;;;;;;-144.15;0.00;65763.66;10239809;28;20077;-67
2020/12/10 14:33:47;;;;;;;304.52;170.23;;;;;;;-144.15;0.00;65763.66;10239768;28;20477;-67
2020/12/10 14:38:44;;;;;;;282.40;156.65;;;;;;;-144.15;0.00;65763.66;10239317;28;20077;-68
2020/12/10 14:43:44;;;;;;;98.05;56.17;;;;;;;-144.15;0.00;65763.66;10239677;28;20049;-66
2020/12/10 14:48:41;;;;;;;103.18;63.38;;;;;;;-144.15;0.00;65763.66;10239127;28;20045;-66
2020/12/10 14:53:41;;;;;;;342.25;184.45;;;;;;;-144.15;0.00;65763.66;10239247;28;20489;-66
2020/12/10 14:58:39;;;;;;;163.13;93.55;;;;;;;-144.15;0.00;65763.66;10238684;28;20085;-65
2020/12/10 15:03:36;;;;;;;153.65;91.85;;;;;;;-144.15;0.00;65763.66;10237659;28;20049;-65
2020/12/10 15:08:34;;;;;;;202.25;134.45;;;;;;;-144.15;0.00;65763.66;10238532;28;20080;-64
2020/12/10 15:13:33;;;;;;;149.82;90.60;;;;;;;-144.15;0.00;65763.66;10237594;28;20083;-65
2020/12/10 15:18:30;;;;;;;181.93;97.10;;;;;;;-144.15;0.00;65763.66;10237683;28;20080;-64
2020/12/10 15:23:28;;;;;;;193.00;126.00;;;;;;;-144.15;0.00;65763.66;10237533;28;20041;-64
2020/12/10 15:28:26;;;;;;;109.72;64.43;;;;;;;-144.15;0.00;65763.66;10236323;28;20143;-65
2020/12/10 15:33:24;;;;;;;121.40;60.90;;;;;;;-144.15;0.00;65763.66;10238593;28;20046;-64
2020/12/10 15:38:22;;;;;;;197.93;97.03;;;;;;;-144.15;0.00;65763.66;10237126;28;20084;-68
2020/12/10 15:43:21;;;;;;;113.32;57.35;;;;;;;-144.15;0.00;65763.66;10237324;28;20446;-68
2020/12/10 15:48:18;;;;;;;151.50;74.07;;;;;;;-144.15;0.00;65763.66;10236894;28;20398;-68
2020/12/10 15:53:17;;;;;;;132.13;70.10;;;;;;;-144.15;0.00;65763.66;10236804;28;20478;-68
2020/12/10 15:58:15;;;;;;;209.85;119.90;;;;;;;-144.15;0.00;65763.66;10236580;28;20446;-66
2020/12/10 16:03:13;;;;;;;75.40;39.47;;;;;;;-144.15;0.00;65763.66;10236712;28;20088;-67
2020/12/10 16:08:10;;;;;;;83.45;45.67;;;;;;;-144.15;0.00;65763.66;10236505;28;20053;-68
2020/12/10 16:13:09;;;;;;;101.88;62.22;;;;;;;-144.15;0.00;65763.66;10235343;28;20092;-68
2020/12/10 16:18:07;;;;;;;85.18;48.58;;;;;;;-144.15;0.00;65763.66;10235683;28;20617;-66
2020/12/10 16:23:04;;;;;;;83.82;48.67;;;;;;;-144.15;0.00;65763.66;10235931;28;20041;-69
2020/12/10 16:28:02;;;;;;;103.05;62.03;;;;;;;-144.15;0.00;65763.66;10235343;28;20514;-67
2020/12/10 16:33:03;;;;;;;72.57;30.67;;;;;;;-144.15;0.00;65763.66;10235659;28;20065;-67
2020/12/10 16:38:00;;;;;;;103.57;53.03;;;;;;;-144.15;0.00;65763.66;10232913;28;20094;-67
2020/12/10 16:42:59;;;;;;;111.20;49.00;;;;;;;-144.15;0.00;65763.66;10234477;28;20049;-69
2020/12/10 16:47:57;;;;;;;131.02;66.38;;;;;;;-144.15;0.00;65763.66;10234961;28;20084;-70
2020/12/10 16:52:56;;;;;;;107.68;55.42;;;;;;;-144.15;0.00;65763.66;10235616;28;20045;-68
2020/12/10 16:57:54;;;;;;;136.55;55.20;;;;;;;-144.15;0.00;65763.66;10235143;28;20073;-69
2020/12/10 17:02:51;;;;;;;180.23;57.70;;;;;;;-144.15;0.00;65763.66;10207905;28;20066;-68
2020/12/10 17:07:49;;;;;;;115.55;51.47;;;;;;;-144.15;0.00;65763.66;10194927;28;20076;-68
2020/12/10 17:12:48;;;;;;;94.00;46.95;;;;;;;-144.15;0.00;65763.66;10194577;28;20096;-68
2020/12/10 17:17:45;;;;;;;124.18;52.42;;;;;;;-144.15;0.00;65763.66;10194701;28;20078;-69
2020/12/10 17:22:43;;;;;;;137.95;62.70;;;;;;;-144.15;0.00;65763.66;10195185;28;20042;-67
2020/12/10 17:27:41;;;;;;;61.40;32.20;;;;;;;-144.15;0.00;65763.66;10194731;28;20467;-69
2020/12/10 17:32:42;;;;;;;107.85;49.72;;;;;;;-144.15;0.00;65763.66;10194302;28;20495;-69
2020/12/10 17:37:39;;;;;;;121.80;39.50;;;;;;;-144.15;0.00;65763.66;10193898;28;20084;-69
2020/12/10 17:42:37;;;;;;;123.55;58.78;;;;;;;-144.15;0.00;65763.66;10193816;28;20076;-68
2020/12/10 17:47:35;;;;;;;132.57;56.65;;;;;;;-144.15;0.00;65763.66;10193291;28;20070;-70
2020/12/10 17:52:34;;;;;;;84.35;43.47;;;;;;;-144.15;0.00;65763.66;10196652;28;20053;-68
2020/12/10 17:57:32;;;;;;;200.82;70.85;;;;;;;-144.15;0.00;65763.66;10200928;28;20081;-69
2020/12/10 18:02:29;;;;;;;116.28;56.63;;;;;;;-144.15;0.00;65763.66;10200907;28;20061;-69
2020/12/10 18:07:27;;;;;;;116.20;64.43;;;;;;;-144.15;0.00;65763.66;10200888;28;20050;-68
2020/12/10 18:12:29;;;;;;;82.72;43.35;;;;;;;-144.15;0.00;65763.66;10200444;28;20064;-69
2020/12/10 18:17:27;;;;;;;104.10;56.35;;;;;;;-144.15;0.00;65763.66;10200458;28;20042;-71
2020/12/10 18:22:25;;;;;;;153.10;52.72;;;;;;;-144.15;0.00;65763.66;10199702;28;20495;-71
2020/12/10 18:27:23;;;;;;;158.68;48.22;;;;;;;-144.15;0.00;65763.66;10204051;28;20498;-69
2020/12/10 18:32:22;;;;;;;94.90;50.03;;;;;;;-144.15;0.00;65763.66;10237092;28;20096;-71
2020/12/10 18:37:20;;;;;;;83.28;42.53;;;;;;;-144.15;0.00;65763.66;10233003;28;20080;-71
2020/12/10 18:42:18;;;;;;;120.10;58.13;;;;;;;-144.15;0.00;65763.66;10231466;28;20067;-70
2020/12/10 18:47:18;;;;;;;115.30;52.83;;;;;;;-144.15;0.00;65763.66;10240023;28;20073;-70
2020/12/10 18:52:17;;;;;;;190.07;77.32;;;;;;;-144.15;0.00;65763.66;10239355;28;20077;-70
2020/12/10 18:57:16;;;;;;;113.55;57.88;;;;;;;-144.15;0.00;65763.66;10239472;28;20049;-71
2020/12/10 19:02:24;;;;;;;268.65;110.60;;;;;;;-144.15;0.00;65763.66;10238206;28;20180;-71
2020/12/10 19:07:23;;;;;;;144.65;60.17;;;;;;;-144.15;0.00;65763.66;10237210;28;20492;-71
2020/12/10 19:12:22;;;;;;;184.75;83.32;;;;;;;-144.15;0.00;65763.66;10235800;28;20088;-70
2020/12/10 19:17:20;;;;;;;270.15;121.10;;;;;;;-144.15;0.00;65763.66;10234619;28;20455;-70
2020/12/10 19:22:18;;;;;;;256.42;93.82;;;;;;;-144.15;0.00;65763.66;10236706;28;20411;-71
2020/12/10 19:27:16;;;;;;;322.75;98.15;;;;;;;-144.15;0.00;65763.66;10238024;28;20073;-71
2020/12/10 19:32:14;;;;;;;164.18;74.80;;;;;;;-144.15;0.00;65763.66;10237868;28;20077;-71
2020/12/10 19:37:14;;;;;;;100.78;49.80;;;;;;;-144.15;0.00;65763.66;10237895;28;20080;-69
2020/12/10 19:42:12;;;;;;;97.35;44.63;;;;;;;-144.15;0.00;65763.66;10236957;28;20077;-70
2020/12/10 19:47:11;;;;;;;130.40;53.85;;;;;;;-144.15;0.00;65763.66;10237689;28;20423;-70
2020/12/10 19:52:09;;;;;;;115.80;58.17;;;;;;;-144.15;0.00;65763.66;10237012;28;20080;-70
2020/12/10 19:57:07;;;;;;;101.22;47.55;;;;;;;-144.15;0.00;65763.66;10236189;28;20434;-70
2020/12/10 20:02:05;;;;;;;114.80;27.85;;;;;;;-144.15;0.00;65763.66;10236360;28;20121;-71
2020/12/10 20:07:04;;;;;;;81.50;20.67;;;;;;;-144.15;0.00;65763.66;10236715;28;20045;-70
2020/12/10 20:12:05;;;;;;;96.88;23.80;;;;;;;-144.15;0.00;65763.66;10235801;28;20430;-70
2020/12/10 20:17:03;;;;;;;68.45;30.27;;;;;;;-144.15;0.00;65763.66;10235494;28;20050;-69
2020/12/10 20:22:00;;;;;;;143.07;53.20;;;;;;;-144.15;0.00;65763.66;10236145;28;20514;-70
2020/12/10 20:27:01;;;;;;;98.00;46.38;;;;;;;-144.15;0.00;65763.66;10235986;28;20490;-70
2020/12/10 20:32:00;;;;;;;178.50;75.60;;;;;;;-144.15;0.00;65763.66;10234240;28;20502;-71
2020/12/10 20:36:58;;;;;;;121.53;64.53;;;;;;;-144.15;0.00;65763.66;10235221;28;20041;-71
2020/12/10 20:41:56;;;;;;;141.52;73.60;;;;;;;-144.15;0.00;65763.66;10235321;28;20079;-70
2020/12/10 20:46:56;;;;;;;203.57;102.88;;;;;;;-144.15;0.00;65763.66;10234549;28;20174;-70
2020/12/10 20:51:55;;;;;;;49.42;30.73;;;;;;;-144.15;0.00;65763.66;10234975;28;20073;-70
2020/12/10 20:56:53;;;;;;;40.25;30.85;;;;;;;-144.15;0.00;65763.66;10234972;28;20139;-69
2020/12/10 21:01:53;;;;;;;34.33;25.77;;;;;;;-144.15;0.00;65763.66;10234601;28;20503;-70
2020/12/10 21:06:52;;;;;;;47.85;30.90;;;;;;;-144.15;0.00;65763.66;10234553;28;20045;-71
2020/12/10 21:11:49;;;;;;;40.17;29.00;;;;;;;-144.15;0.00;65763.66;10235123;28;20054;-71
2020/12/10 21:16:52;;;;;;;35.40;26.17;;;;;;;-144.15;0.00;65763.66;10234400;28;20477;-71
2020/12/10 21:22:03;;;;;;;38.45;26.17;;;;;;;-144.15;0.00;65763.66;10235098;28;20081;-70
2020/12/10 21:27:01;;;;;;;44.90;28.08;;;;;;;-144.15;0.00;65763.66;10236871;28;20359;-70
2020/12/10 21:31:59;;;;;;;53.70;30.17;;;;;;;-144.15;0.00;65763.66;10242406;28;20045;-70
2020/12/10 21:36:56;;;;;;;32.72;21.45;;;;;;;-144.15;0.00;65763.66;10241596;28;20493;-70
2020/12/10 21:41:55;;;;;;;29.27;21.15;;;;;;;-144.15;0.00;65763.66;10241817;28;20076;-70
2020/12/10 21:46:56;;;;;;;49.20;32.40;;;;;;;-144.15;0.00;65763.66;10242267;28;20052;-72
2020/12/10 21:51:54;;;;;;;31.40;22.08;;;;;;;-144.15;0.00;65763.66;10241504;28;20096;-70
2020/12/10 21:56:52;;;;;;;47.75;30.50;;;;;;;-144.15;0.00;65763.66;10241424;28;20045;-71
2020/12/10 22:01:51;;;;;;;34.65;22.75;;;;;;;-144.15;0.00;65763.66;10241192;28;20073;-70
2020/12/10 22:06:49;;;;;;;42.45;30.02;;;;;;;-144.15;0.00;65763.66;10240477;28;20045;-70
2020/12/10 22:11:52;;;;;;;48.97;34.80;;;;;;;-144.15;0.00;65763.66;10240821;28;20088;-70
2020/12/10 22:16:51;;;;;;;46.50;28.88;;;;;;;-144.15;0.00;65763.66;10240793;28;20041;-72
2020/12/10 22:21:52;;;;;;;42.65;27.77;;;;;;;-144.15;0.00;65763.66;10239964;28;20077;-71